createdAt,value
2019-03-17T00:01:57.111Z,9.20
2019-03-17T00:03:54.052Z,9.30
2019-03-17T00:05:57.970Z,9.30
2019-03-17T00:08:01.769Z,9.30
2019-03-17T00:10:05.957Z,9.40
2019-03-17T00:12:09.825Z,9.40
2019-03-17T00:14:13.617Z,9.40
2019-03-17T00:16:17.587Z,9.40
2019-03-17T00:18:21.428Z,9.40
2019-03-17T00:20:25.130Z,9.50
2019-03-17T00:22:29.024Z,9.50
2019-03-17T00:24:32.786Z,9.40
2019-03-17T00:26:36.662Z,9.40
2019-03-17T00:28:40.407Z,9.50
2019-03-17T00:30:44.178Z,9.40
2019-03-17T00:32:47.853Z,9.50
2019-03-17T00:34:51.634Z,9.50
2019-03-17T00:36:55.389Z,9.50
2019-03-17T00:38:59.190Z,9.50
2019-03-17T00:41:02.894Z,9.50
2019-03-17T00:43:07.745Z,9.50
2019-03-17T00:45:12.398Z,9.40
2019-03-17T00:47:17.350Z,9.40
2019-03-17T00:49:21.195Z,9.40
2019-03-17T00:51:24.966Z,9.30
2019-03-17T00:53:30.371Z,9.30
2019-03-17T00:55:34.146Z,9.20
2019-03-17T00:57:38.112Z,9.20
2019-03-17T00:59:41.927Z,9.20
2019-03-17T01:01:45.682Z,9.20
2019-03-17T01:03:49.397Z,9.20
2019-03-17T01:05:53.236Z,9.10
2019-03-17T01:07:56.908Z,9.20
2019-03-17T01:10:00.614Z,9.10
2019-03-17T01:12:04.817Z,9.10
2019-03-17T01:14:09.549Z,9.10
2019-03-17T01:16:13.327Z,9.00
2019-03-17T01:18:17.119Z,9.00
2019-03-17T01:20:20.965Z,9.00
2019-03-17T01:22:25.826Z,9.00
2019-03-17T01:24:29.544Z,8.90
2019-03-17T01:26:33.182Z,8.90
2019-03-17T01:28:36.834Z,9.00
2019-03-17T01:30:40.735Z,9.00
2019-03-17T01:32:44.587Z,8.90
2019-03-17T01:34:48.285Z,8.90
2019-03-17T01:36:52.147Z,8.90
2019-03-17T01:38:55.856Z,9.00
2019-03-17T01:41:00.508Z,9.00
2019-03-17T01:43:04.510Z,9.00
2019-03-17T01:45:27.469Z,9.00
2019-03-17T01:47:31.389Z,9.00
2019-03-17T01:49:35.051Z,9.00
2019-03-17T01:51:39.767Z,9.00
2019-03-17T01:53:43.596Z,9.00
2019-03-17T01:55:47.203Z,9.00
2019-03-17T01:57:51.080Z,9.00
2019-03-17T01:59:54.737Z,9.00
2019-03-17T02:01:58.586Z,9.00
2019-03-17T02:04:02.435Z,8.90
2019-03-17T02:06:06.160Z,8.90
2019-03-17T02:08:11.066Z,8.90
2019-03-17T02:10:14.804Z,8.90
2019-03-17T02:12:18.578Z,8.90
2019-03-17T02:14:22.312Z,8.90
2019-03-17T02:16:25.906Z,8.90
2019-03-17T02:18:29.794Z,8.90
2019-03-17T02:20:34.205Z,8.90
2019-03-17T02:22:37.949Z,8.90
2019-03-17T02:24:41.714Z,8.90
2019-03-17T02:26:45.526Z,8.90
2019-03-17T02:28:49.319Z,8.90
2019-03-17T02:30:53.123Z,8.90
2019-03-17T02:32:57.021Z,8.90
2019-03-17T02:35:00.755Z,8.90
2019-03-17T02:37:04.826Z,8.80
2019-03-17T02:39:08.610Z,8.80
2019-03-17T02:41:12.496Z,8.80
2019-03-17T02:43:16.329Z,8.80
2019-03-17T02:45:20.052Z,8.90
2019-03-17T02:47:23.938Z,8.90
2019-03-17T02:49:27.547Z,8.80
2019-03-17T02:51:31.358Z,8.80
2019-03-17T02:53:35.128Z,8.80
2019-03-17T02:55:40.872Z,8.70
2019-03-17T02:57:44.652Z,8.70
2019-03-17T02:59:48.306Z,8.70
2019-03-17T03:01:52.142Z,8.70
2019-03-17T03:03:56.902Z,8.60
2019-03-17T03:06:00.625Z,8.60
2019-03-17T03:08:05.360Z,8.60
2019-03-17T03:10:09.214Z,8.60
2019-03-17T03:12:13.011Z,8.60
2019-03-17T03:14:16.776Z,8.70
2019-03-17T03:16:20.518Z,8.60
2019-03-17T03:18:24.315Z,8.60
2019-03-17T03:20:27.971Z,8.60
2019-03-17T03:22:31.578Z,8.60
2019-03-17T03:24:35.350Z,8.70
2019-03-17T03:26:39.046Z,8.60
2019-03-17T03:28:42.909Z,8.60
2019-03-17T03:30:46.606Z,8.60
2019-03-17T03:32:50.373Z,8.60
2019-03-17T03:34:54.169Z,8.60
2019-03-17T03:36:58.892Z,8.50
2019-03-17T03:39:02.784Z,8.50
2019-03-17T03:41:06.491Z,8.50
2019-03-17T03:43:10.252Z,8.60
2019-03-17T03:45:14.093Z,8.60
2019-03-17T03:47:18.827Z,8.60
2019-03-17T03:49:22.709Z,8.60
2019-03-17T03:51:26.722Z,8.60
2019-03-17T03:53:30.409Z,8.60
2019-03-17T03:55:34.137Z,8.50
2019-03-17T03:57:37.975Z,8.60
2019-03-17T03:59:41.828Z,8.60
2019-03-17T04:01:45.660Z,8.60
2019-03-17T04:03:49.521Z,8.60
2019-03-17T04:05:53.251Z,8.60
2019-03-17T04:07:57.010Z,8.60
2019-03-17T04:10:00.778Z,8.60
2019-03-17T04:12:04.757Z,8.50
2019-03-17T04:14:08.546Z,8.60
2019-03-17T04:16:12.319Z,8.60
2019-03-17T04:18:15.984Z,8.60
2019-03-17T04:20:19.863Z,8.60
2019-03-17T04:22:23.612Z,8.60
2019-03-17T04:24:27.391Z,8.50
2019-03-17T04:26:31.264Z,8.50
2019-03-17T04:28:35.063Z,8.50
2019-03-17T04:30:38.790Z,8.50
2019-03-17T04:32:42.507Z,8.50
2019-03-17T04:34:46.229Z,8.50
2019-03-17T04:36:50.013Z,8.40
2019-03-17T04:38:53.726Z,8.40
2019-03-17T04:40:57.589Z,8.50
2019-03-17T04:43:01.243Z,8.40
2019-03-17T04:45:06.198Z,8.40
2019-03-17T04:47:09.850Z,8.40
2019-03-17T04:49:13.615Z,8.40
2019-03-17T04:51:17.448Z,8.40
2019-03-17T04:53:21.244Z,8.40
2019-03-17T04:55:24.981Z,8.40
2019-03-17T04:57:28.686Z,8.40
2019-03-17T04:59:32.452Z,8.30
2019-03-17T05:01:36.182Z,8.30
2019-03-17T05:03:39.764Z,8.30
2019-03-17T05:05:43.622Z,8.30
2019-03-17T05:07:47.483Z,8.30
2019-03-17T05:09:51.171Z,8.30
2019-03-17T05:11:54.756Z,8.30
2019-03-17T05:13:58.446Z,8.30
2019-03-17T05:16:04.244Z,8.30
2019-03-17T05:18:08.025Z,8.40
2019-03-17T05:20:12.185Z,8.40
2019-03-17T05:22:16.012Z,8.40
2019-03-17T05:24:19.736Z,8.40
2019-03-17T05:26:23.625Z,8.40
2019-03-17T05:28:27.389Z,8.40
2019-03-17T05:30:31.294Z,8.40
2019-03-17T05:32:34.942Z,8.40
2019-03-17T05:34:38.788Z,8.30
2019-03-17T05:36:42.563Z,8.30
2019-03-17T05:38:58.584Z,8.30
2019-03-17T05:41:02.441Z,8.30
2019-03-17T05:43:06.272Z,8.30
2019-03-17T05:45:10.196Z,8.30
2019-03-17T05:47:14.890Z,8.30
2019-03-17T05:49:18.587Z,8.40
2019-03-17T05:51:22.407Z,8.40
2019-03-17T05:53:26.076Z,8.40
2019-03-17T05:55:29.845Z,8.40
2019-03-17T05:57:33.744Z,8.40
2019-03-17T05:59:37.497Z,8.40
2019-03-17T06:01:41.148Z,8.40
2019-03-17T06:03:44.938Z,8.40
2019-03-17T06:05:49.861Z,8.40
2019-03-17T06:07:53.603Z,8.40
2019-03-17T06:09:57.409Z,8.40
2019-03-17T06:12:01.159Z,8.40
2019-03-17T06:14:05.898Z,8.40
2019-03-17T06:16:09.646Z,8.40
2019-03-17T06:18:13.483Z,8.40
2019-03-17T06:20:17.164Z,8.50
2019-03-17T06:22:22.049Z,8.50
2019-03-17T06:24:25.911Z,8.50
2019-03-17T06:26:29.696Z,8.60
2019-03-17T06:28:33.418Z,8.60
2019-03-17T06:30:37.146Z,8.60
2019-03-17T06:32:41.008Z,8.60
2019-03-17T06:34:44.793Z,8.60
2019-03-17T06:36:48.714Z,8.70
2019-03-17T06:38:53.642Z,8.70
2019-03-17T06:40:57.436Z,8.70
2019-03-17T06:43:01.074Z,8.70
2019-03-17T06:45:07.826Z,8.70
2019-03-17T06:47:11.501Z,8.70
2019-03-17T06:49:15.305Z,8.70
2019-03-17T06:51:18.857Z,8.80
2019-03-17T06:53:22.667Z,8.80
2019-03-17T06:55:26.474Z,8.80
2019-03-17T06:57:31.284Z,8.80
2019-03-17T06:59:35.090Z,8.80
2019-03-17T07:01:38.920Z,8.90
2019-03-17T07:03:42.621Z,8.90
2019-03-17T07:05:46.381Z,8.90
2019-03-17T07:07:50.218Z,8.90
2019-03-17T07:09:54.163Z,8.90
2019-03-17T07:11:57.801Z,9.00
2019-03-17T07:14:01.594Z,9.00
2019-03-17T07:16:05.930Z,9.00
2019-03-17T07:18:09.866Z,8.90
2019-03-17T07:20:14.311Z,8.90
2019-03-17T07:22:18.115Z,9.00
2019-03-17T07:24:21.852Z,8.90
2019-03-17T07:26:25.653Z,8.90
2019-03-17T07:28:29.229Z,8.90
2019-03-17T07:30:33.007Z,9.00
2019-03-17T07:32:36.849Z,9.00
2019-03-17T07:34:42.760Z,9.00
2019-03-17T07:36:46.495Z,9.00
2019-03-17T07:38:50.526Z,8.90
2019-03-17T07:40:54.281Z,8.90
2019-03-17T07:42:59.126Z,8.90
2019-03-17T07:45:03.034Z,8.90
2019-03-17T07:47:06.830Z,8.90
2019-03-17T07:49:10.646Z,9.00
2019-03-17T07:51:14.431Z,8.90
2019-03-17T07:53:18.241Z,9.00
2019-03-17T07:55:21.910Z,9.00
2019-03-17T07:57:25.833Z,9.00
2019-03-17T07:59:29.530Z,9.10
2019-03-17T08:01:33.236Z,9.10
2019-03-17T08:03:36.929Z,9.20
2019-03-17T08:05:40.693Z,9.20
2019-03-17T08:07:44.486Z,9.20
2019-03-17T08:09:48.432Z,9.20
2019-03-17T08:11:57.515Z,9.20
2019-03-17T08:14:01.399Z,9.20
2019-03-17T08:16:05.358Z,9.10
2019-03-17T08:18:08.995Z,9.10
2019-03-17T08:20:18.454Z,9.20
2019-03-17T08:22:22.215Z,9.20
2019-03-17T08:24:25.990Z,9.20
2019-03-17T08:26:34.358Z,9.20
2019-03-17T08:28:38.101Z,9.20
2019-03-17T08:30:52.436Z,9.20
2019-03-17T08:32:48.365Z,9.30
2019-03-17T08:34:53.248Z,9.30
2019-03-17T08:36:57.057Z,9.30
2019-03-17T08:39:00.888Z,9.30
2019-03-17T08:41:04.697Z,9.40
2019-03-17T08:43:08.497Z,9.30
2019-03-17T08:45:14.114Z,9.40
2019-03-17T08:47:17.920Z,9.40
2019-03-17T08:49:21.704Z,9.40
2019-03-17T08:51:25.625Z,9.40
2019-03-17T08:53:29.406Z,9.40
2019-03-17T08:55:33.340Z,9.40
2019-03-17T08:57:37.251Z,9.40
2019-03-17T08:59:41.666Z,9.40
2019-03-17T09:01:47.747Z,9.40
2019-03-17T09:03:53.241Z,9.40
2019-03-17T09:05:59.153Z,9.40
2019-03-17T09:08:04.938Z,9.50
2019-03-17T09:10:15.388Z,9.40
2019-03-17T09:12:19.686Z,9.50
2019-03-17T09:14:23.462Z,9.50
2019-03-17T09:16:27.282Z,9.50
2019-03-17T09:18:31.120Z,9.60
2019-03-17T09:20:34.869Z,9.60
2019-03-17T09:22:38.820Z,9.70
2019-03-17T09:24:42.619Z,9.70
2019-03-17T09:26:46.385Z,9.70
2019-03-17T09:28:50.078Z,9.70
2019-03-17T09:30:53.812Z,9.70
2019-03-17T09:32:57.516Z,9.80
2019-03-17T09:35:01.522Z,9.80
2019-03-17T09:37:05.802Z,9.80
2019-03-17T09:39:09.500Z,9.80
2019-03-17T09:41:13.159Z,9.90
2019-03-17T09:43:17.018Z,9.90
2019-03-17T09:45:20.762Z,9.90
2019-03-17T09:47:24.837Z,9.90
2019-03-17T09:49:28.697Z,9.90
2019-03-17T09:51:33.560Z,9.90
2019-03-17T09:53:37.390Z,9.80
2019-03-17T09:55:41.271Z,9.80
2019-03-17T09:57:45.150Z,9.80
2019-03-17T09:59:49.435Z,9.70
2019-03-17T10:01:53.222Z,9.60
2019-03-17T10:03:56.894Z,9.60
2019-03-17T10:06:00.859Z,9.50
2019-03-17T10:08:05.105Z,9.50
2019-03-17T10:10:14.119Z,9.40
2019-03-17T10:12:18.106Z,9.30
2019-03-17T10:14:22.142Z,9.30
2019-03-17T10:16:26.255Z,9.20
2019-03-17T10:18:31.096Z,9.20
2019-03-17T10:20:35.165Z,9.10
2019-03-17T10:22:39.906Z,9.00
2019-03-17T10:24:43.894Z,9.00
2019-03-17T10:26:48.657Z,8.90
2019-03-17T10:28:52.481Z,8.90
2019-03-17T10:30:56.211Z,8.90
2019-03-17T10:32:59.978Z,8.90
2019-03-17T10:35:04.291Z,8.90
2019-03-17T10:37:12.733Z,8.90
2019-03-17T10:39:45.079Z,8.80
2019-03-17T10:42:07.299Z,8.80
2019-03-17T10:44:08.663Z,8.80
2019-03-17T10:46:12.448Z,8.70
2019-03-17T10:48:16.252Z,8.80
2019-03-17T10:50:21.134Z,8.70
2019-03-17T10:52:24.757Z,8.80
2019-03-17T10:54:28.559Z,8.90
2019-03-17T10:56:32.265Z,8.90
2019-03-17T10:58:36.096Z,8.90
2019-03-17T11:00:39.767Z,9.00
2019-03-17T11:02:43.658Z,8.90
2019-03-17T11:04:47.477Z,9.00
2019-03-17T11:06:51.215Z,9.00
2019-03-17T11:08:54.910Z,9.00
2019-03-17T11:10:58.668Z,9.00
2019-03-17T11:13:02.600Z,9.00
2019-03-17T11:15:20.488Z,9.00
2019-03-17T11:17:24.107Z,8.90
2019-03-17T11:19:27.883Z,8.70
2019-03-17T11:21:31.727Z,8.50
2019-03-17T11:23:35.523Z,8.40
2019-03-17T11:25:39.289Z,8.30
2019-03-17T11:27:43.091Z,8.20
2019-03-17T11:29:46.804Z,8.00
2019-03-17T11:31:50.497Z,8.00
2019-03-17T11:33:54.144Z,7.90
2019-03-17T11:35:58.024Z,7.80
2019-03-17T11:38:01.563Z,7.70
2019-03-17T11:40:10.852Z,7.70
2019-03-17T11:42:14.407Z,7.70
2019-03-17T11:44:18.202Z,7.60
2019-03-17T11:46:21.827Z,7.50
2019-03-17T11:48:25.616Z,7.50
2019-03-17T11:50:29.439Z,7.50
2019-03-17T11:52:33.343Z,7.40
2019-03-17T11:54:37.142Z,7.40
2019-03-17T11:56:40.802Z,7.40
2019-03-17T11:58:44.605Z,7.40
2019-03-17T12:00:48.549Z,7.30
2019-03-17T12:02:52.285Z,7.30
2019-03-17T12:04:56.020Z,7.30
2019-03-17T12:06:59.697Z,7.30
2019-03-17T12:09:04.507Z,7.30
2019-03-17T12:11:08.562Z,7.30
2019-03-17T12:13:12.337Z,7.30
2019-03-17T12:15:19.168Z,7.20
2019-03-17T12:17:22.950Z,7.20
2019-03-17T12:19:26.715Z,7.20
2019-03-17T12:21:30.589Z,7.20
2019-03-17T12:23:34.275Z,7.20
2019-03-17T12:25:38.081Z,7.20
2019-03-17T12:27:42.873Z,7.10
2019-03-17T12:29:46.531Z,7.10
2019-03-17T12:31:52.123Z,7.10
2019-03-17T12:33:55.823Z,7.00
2019-03-17T12:36:00.497Z,7.00
2019-03-17T12:38:04.211Z,7.00
2019-03-17T12:40:07.955Z,7.10
2019-03-17T12:42:11.741Z,7.10
2019-03-17T12:44:15.463Z,7.00
2019-03-17T12:46:19.491Z,7.00
2019-03-17T12:48:23.159Z,7.00
2019-03-17T12:50:27.594Z,6.90
2019-03-17T12:52:31.337Z,6.90
2019-03-17T12:54:34.930Z,6.90
2019-03-17T12:56:38.638Z,6.90
2019-03-17T12:58:42.312Z,6.80
2019-03-17T13:00:46.285Z,6.80
2019-03-17T13:02:50.115Z,6.80
2019-03-17T13:04:53.822Z,6.80
2019-03-17T13:06:58.159Z,6.70
2019-03-17T13:09:01.787Z,6.80
2019-03-17T13:11:05.843Z,6.80
2019-03-17T13:13:09.816Z,6.70
2019-03-17T13:15:13.570Z,6.60
2019-03-17T13:17:21.585Z,6.70
2019-03-17T13:19:25.552Z,6.70
2019-03-17T13:21:29.904Z,6.70
2019-03-17T13:23:34.616Z,6.70
2019-03-17T13:25:40.524Z,6.70
2019-03-17T13:27:47.260Z,6.70
2019-03-17T13:29:51.760Z,6.80
2019-03-17T13:31:57.175Z,6.80
2019-03-17T13:36:28.114Z,6.70
2019-03-17T13:38:33.606Z,6.60
2019-03-17T13:40:39.279Z,6.70
2019-03-17T13:42:45.673Z,6.70
2019-03-17T13:44:50.617Z,6.60
2019-03-17T13:46:54.718Z,6.60
2019-03-17T13:48:59.404Z,6.60
2019-03-17T13:51:03.551Z,6.60
2019-03-17T13:53:07.580Z,6.60
2019-03-17T13:55:11.446Z,6.60
2019-03-17T13:57:15.254Z,6.60
2019-03-17T13:59:19.198Z,6.60
2019-03-17T14:01:23.117Z,6.50
2019-03-17T14:03:26.837Z,6.50
2019-03-17T14:05:30.698Z,6.60
2019-03-17T14:07:34.446Z,6.60
2019-03-17T14:09:38.185Z,6.60
2019-03-17T14:11:41.989Z,6.60
2019-03-17T14:13:45.681Z,6.60
2019-03-17T14:15:49.465Z,6.70
2019-03-17T14:17:53.290Z,6.80
2019-03-17T14:19:56.980Z,6.90
2019-03-17T14:22:00.653Z,7.00
2019-03-17T14:24:05.592Z,7.10
2019-03-17T14:26:09.284Z,7.10
2019-03-17T14:28:13.057Z,7.20
2019-03-17T14:30:17.451Z,7.40
2019-03-17T14:32:21.318Z,7.50
2019-03-17T14:34:25.047Z,7.60
2019-03-17T14:36:28.839Z,7.60
2019-03-17T14:38:32.725Z,7.50
2019-03-17T14:40:36.462Z,7.60
2019-03-17T14:42:40.133Z,7.60
2019-03-17T14:44:43.845Z,7.60
2019-03-17T14:46:47.472Z,7.50
2019-03-17T14:48:51.258Z,7.40
2019-03-17T14:50:54.965Z,7.40
2019-03-17T14:53:00.890Z,7.40
2019-03-17T14:55:05.755Z,7.20
2019-03-17T14:57:09.489Z,7.20
2019-03-17T14:59:13.398Z,7.20
2019-03-17T15:01:17.173Z,7.20
2019-03-17T15:03:20.965Z,7.30
2019-03-17T15:05:25.439Z,7.60
2019-03-17T15:07:30.127Z,7.90
2019-03-17T15:09:33.929Z,8.20
2019-03-17T15:11:37.629Z,8.30
2019-03-17T15:13:41.371Z,8.40
2019-03-17T15:15:45.185Z,8.60
2019-03-17T15:17:49.906Z,8.60
2019-03-17T15:20:01.248Z,8.40
2019-03-17T15:22:06.712Z,8.20
2019-03-17T15:24:12.329Z,8.10
2019-03-17T15:26:16.923Z,7.90
2019-03-17T15:28:30.309Z,7.70
2019-03-17T15:30:38.124Z,7.70
2019-03-17T15:32:45.075Z,7.60
2019-03-17T15:34:52.302Z,7.70
2019-03-17T15:36:56.379Z,7.60
2019-03-17T15:39:00.285Z,7.60
2019-03-17T15:41:17.990Z,7.50
2019-03-17T15:43:13.175Z,7.50
2019-03-17T15:45:23.269Z,7.50
2019-03-17T15:47:27.558Z,7.50
2019-03-17T15:49:31.174Z,7.20
2019-03-17T15:51:35.051Z,7.00
2019-03-17T15:53:38.893Z,6.80
2019-03-17T15:55:42.672Z,6.60
2019-03-17T15:57:46.358Z,6.40
2019-03-17T15:59:50.095Z,6.40
2019-03-17T16:01:53.864Z,6.30
2019-03-17T16:03:57.519Z,6.30
2019-03-17T16:06:01.309Z,6.40
2019-03-17T16:08:05.029Z,6.50
2019-03-17T16:10:14.741Z,6.40
2019-03-17T16:12:18.507Z,6.30
2019-03-17T16:14:22.327Z,6.30
2019-03-17T16:16:26.028Z,6.20
2019-03-17T16:18:29.603Z,6.20
2019-03-17T16:20:34.521Z,6.30
2019-03-17T16:22:38.276Z,6.20
2019-03-17T16:24:42.048Z,6.20
2019-03-17T16:26:45.682Z,6.20
2019-03-17T16:28:49.464Z,6.20
2019-03-17T16:30:53.222Z,6.20
2019-03-17T16:32:58.254Z,6.20
2019-03-17T16:35:01.925Z,6.20
2019-03-17T16:37:05.790Z,6.20
2019-03-17T16:39:09.437Z,6.20
2019-03-17T16:41:13.198Z,6.20
2019-03-17T16:43:16.942Z,6.20
2019-03-17T16:45:20.657Z,6.10
2019-03-17T16:47:24.392Z,6.00
2019-03-17T16:49:28.027Z,6.00
2019-03-17T16:51:31.747Z,6.00
2019-03-17T16:53:35.488Z,6.10
2019-03-17T16:55:39.479Z,6.10
2019-03-17T16:57:43.635Z,6.10
2019-03-17T16:59:47.360Z,6.10
2019-03-17T17:01:51.041Z,6.10
2019-03-17T17:03:54.876Z,6.20
2019-03-17T17:05:58.716Z,6.20
2019-03-17T17:08:03.745Z,6.10
2019-03-17T17:10:24.810Z,6.10
2019-03-17T17:12:28.578Z,6.00
2019-03-17T17:14:32.459Z,6.00
2019-03-17T17:16:36.247Z,5.90
2019-03-17T17:18:40.114Z,5.90
2019-03-17T17:20:43.843Z,5.80
2019-03-17T17:22:47.668Z,5.80
2019-03-17T17:24:51.374Z,5.80
2019-03-17T17:26:55.163Z,5.70
2019-03-17T17:28:58.888Z,5.80
2019-03-17T17:31:02.554Z,5.70
2019-03-17T17:33:06.467Z,5.70
2019-03-17T17:35:10.203Z,5.70
2019-03-17T17:37:13.931Z,5.70
2019-03-17T17:39:17.584Z,5.70
2019-03-17T17:41:21.351Z,5.70
2019-03-17T17:43:25.217Z,5.60
2019-03-17T17:45:28.907Z,5.60
2019-03-17T17:47:33.622Z,5.60
2019-03-17T17:49:37.294Z,5.60
2019-03-17T17:51:40.942Z,5.60
2019-03-17T17:53:44.722Z,5.50
2019-03-17T17:55:48.541Z,5.50
2019-03-17T17:57:52.998Z,5.40
2019-03-17T17:59:57.071Z,5.30
2019-03-17T18:02:00.799Z,5.40
2019-03-17T18:04:04.612Z,5.40
2019-03-17T18:06:09.438Z,5.40
2019-03-17T18:08:13.149Z,5.40
2019-03-17T18:10:18.115Z,5.40
2019-03-17T18:12:21.756Z,5.30
2019-03-17T18:14:25.631Z,5.30
2019-03-17T18:16:29.315Z,5.20
2019-03-17T18:18:33.124Z,5.20
2019-03-17T18:20:36.762Z,5.20
2019-03-17T18:22:42.592Z,5.10
2019-03-17T18:24:46.197Z,5.10
2019-03-17T18:26:49.901Z,5.10
2019-03-17T18:28:53.628Z,5.10
2019-03-17T18:30:57.376Z,5.00
2019-03-17T18:33:01.095Z,5.00
2019-03-17T18:35:06.652Z,5.00
2019-03-17T18:37:10.451Z,5.00
2019-03-17T18:39:14.237Z,4.90
2019-03-17T18:41:18.051Z,4.90
2019-03-17T18:43:21.686Z,4.90
2019-03-17T18:45:27.031Z,4.90
2019-03-17T18:47:31.098Z,4.90
2019-03-17T18:49:35.899Z,4.80
2019-03-17T18:52:10.160Z,4.80
2019-03-17T18:54:13.300Z,4.80
2019-03-17T18:56:17.055Z,4.80
2019-03-17T18:58:20.869Z,4.80
2019-03-17T19:00:25.757Z,4.80
2019-03-17T19:02:29.740Z,4.90
2019-03-17T19:04:33.487Z,4.80
2019-03-17T19:06:40.103Z,4.80
2019-03-17T19:08:43.978Z,4.80
2019-03-17T19:10:47.747Z,4.70
2019-03-17T19:12:51.614Z,4.70
2019-03-17T19:14:56.084Z,4.70
2019-03-17T19:16:59.686Z,4.70
2019-03-17T19:19:04.186Z,4.70
2019-03-17T19:21:08.374Z,4.70
2019-03-17T19:23:12.227Z,4.70
2019-03-17T19:25:17.733Z,4.80
2019-03-17T19:27:21.650Z,4.80
2019-03-17T19:29:25.528Z,4.80
2019-03-17T19:31:29.367Z,4.80
2019-03-17T19:33:36.128Z,4.80
2019-03-17T19:35:38.796Z,4.80
2019-03-17T19:37:43.054Z,4.80
2019-03-17T19:39:46.931Z,4.80
2019-03-17T19:41:50.747Z,4.80
2019-03-17T19:43:54.920Z,4.80
2019-03-17T19:46:00.617Z,4.80
2019-03-17T19:48:04.261Z,4.80
2019-03-17T19:50:10.998Z,4.80
2019-03-17T19:52:14.606Z,4.70
2019-03-17T19:54:18.413Z,4.70
2019-03-17T19:56:22.235Z,4.70
2019-03-17T19:58:26.614Z,4.70
2019-03-17T20:00:30.326Z,4.60
2019-03-17T20:02:33.985Z,4.60
2019-03-17T20:04:38.537Z,4.60
2019-03-17T20:06:42.464Z,4.50
2019-03-17T20:08:46.234Z,4.50
2019-03-17T20:10:50.024Z,4.40
2019-03-17T20:12:54.068Z,4.40
2019-03-17T20:14:58.190Z,4.40
2019-03-17T20:17:02.042Z,4.40
2019-03-17T20:19:05.777Z,4.40
2019-03-17T20:21:09.992Z,4.30
2019-03-17T20:23:13.658Z,4.40
2019-03-17T20:25:17.552Z,4.40
2019-03-17T20:27:21.286Z,4.40
2019-03-17T20:29:45.499Z,4.30
2019-03-17T20:31:51.316Z,4.30
2019-03-17T20:33:54.966Z,4.30
2019-03-17T20:35:59.013Z,4.30
2019-03-17T20:38:02.624Z,4.20
2019-03-17T20:40:11.464Z,4.20
2019-03-17T20:42:15.282Z,4.20
2019-03-17T20:44:20.054Z,4.20
2019-03-17T20:46:24.360Z,4.20
2019-03-17T20:48:28.133Z,4.30
2019-03-17T20:50:31.822Z,4.30
2019-03-17T20:52:35.525Z,4.30
2019-03-17T20:54:39.268Z,4.30
2019-03-17T20:56:43.157Z,4.20
2019-03-17T20:58:46.916Z,4.20
2019-03-17T21:00:50.658Z,4.20
2019-03-17T21:02:54.383Z,4.10
2019-03-17T21:04:58.167Z,4.10
2019-03-17T21:07:01.962Z,4.00
2019-03-17T21:09:07.448Z,4.00
2019-03-17T21:11:11.112Z,4.00
2019-03-17T21:13:14.938Z,4.00
2019-03-17T21:15:20.167Z,4.00
2019-03-17T21:17:23.867Z,4.00
2019-03-17T21:19:28.306Z,4.00
2019-03-17T21:21:31.902Z,4.00
2019-03-17T21:23:35.700Z,3.90
2019-03-17T21:25:39.403Z,3.90
2019-03-17T21:27:43.156Z,3.90
2019-03-17T21:29:46.802Z,3.90
2019-03-17T21:31:50.463Z,3.90
2019-03-17T21:33:54.178Z,3.90
2019-03-17T21:35:57.889Z,3.80
2019-03-17T21:38:01.788Z,3.80
2019-03-17T21:40:07.987Z,3.80
2019-03-17T21:42:11.644Z,3.70
2019-03-17T21:44:16.591Z,3.70
2019-03-17T21:46:21.230Z,3.70
2019-03-17T21:48:26.114Z,3.60
2019-03-17T21:50:29.709Z,3.60
2019-03-17T21:52:34.474Z,3.60
2019-03-17T21:54:38.233Z,3.60
2019-03-17T21:56:42.010Z,3.60
2019-03-17T21:58:45.851Z,3.60
2019-03-17T22:00:49.630Z,3.70
2019-03-17T22:02:54.905Z,3.60
2019-03-17T22:04:58.666Z,3.60
2019-03-17T22:07:02.465Z,3.60
2019-03-17T22:09:07.450Z,3.60
2019-03-17T22:11:11.222Z,3.60
2019-03-17T22:13:15.143Z,3.60
2019-03-17T22:15:19.106Z,3.60
2019-03-17T22:17:23.823Z,3.60
2019-03-17T22:19:27.471Z,3.50
2019-03-17T22:21:31.370Z,3.50
2019-03-17T22:23:35.369Z,3.50
2019-03-17T22:25:39.271Z,3.40
2019-03-17T22:27:42.910Z,3.50
2019-03-17T22:29:46.628Z,3.50
2019-03-17T22:31:50.448Z,3.50
2019-03-17T22:33:54.471Z,3.50
2019-03-17T22:35:58.095Z,3.50
2019-03-17T22:38:01.738Z,3.50
2019-03-17T22:40:10.751Z,3.50
2019-03-17T22:42:14.593Z,3.50
2019-03-17T22:44:24.161Z,3.50
2019-03-17T22:46:23.583Z,3.50
2019-03-17T22:48:27.305Z,3.40
2019-03-17T22:50:30.926Z,3.40
2019-03-17T22:52:34.804Z,3.40
2019-03-17T22:54:38.446Z,3.50
2019-03-17T22:56:42.523Z,3.40
2019-03-17T22:58:46.183Z,3.40
2019-03-17T23:00:50.942Z,3.40
2019-03-17T23:02:54.803Z,3.40
2019-03-17T23:04:58.541Z,3.40
2019-03-17T23:07:02.145Z,3.30
2019-03-17T23:09:07.836Z,3.40
2019-03-17T23:11:11.553Z,3.40
2019-03-17T23:13:15.218Z,3.40
2019-03-17T23:15:19.030Z,3.40
2019-03-17T23:17:22.833Z,3.40
2019-03-17T23:19:26.634Z,3.40
2019-03-17T23:21:30.513Z,3.40
2019-03-17T23:23:34.183Z,3.40
2019-03-17T23:25:38.010Z,3.40
2019-03-17T23:27:41.735Z,3.30
2019-03-17T23:29:46.526Z,3.40
2019-03-17T23:31:50.160Z,3.30
2019-03-17T23:33:53.865Z,3.30
2019-03-17T23:35:57.653Z,3.20
2019-03-17T23:38:01.419Z,3.20
2019-03-17T23:40:09.731Z,3.20
2019-03-17T23:42:13.204Z,3.20
2019-03-17T23:44:17.001Z,3.20
2019-03-17T23:46:20.697Z,3.10
2019-03-17T23:48:24.324Z,3.10
2019-03-17T23:50:28.171Z,3.10
2019-03-17T23:52:31.856Z,3.10
2019-03-17T23:54:35.684Z,3.10
2019-03-17T23:56:39.492Z,3.10
2019-03-17T23:58:43.233Z,3.10
